createdAt,value
2017-07-20T00:00:13.639Z,0
2017-07-20T00:01:13.631Z,0
2017-07-20T00:02:13.318Z,0
2017-07-20T00:03:13.330Z,0
2017-07-20T00:04:13.601Z,0
2017-07-20T00:05:13.281Z,0
2017-07-20T00:06:13.273Z,0
2017-07-20T00:07:13.569Z,0
2017-07-20T00:08:13.562Z,0
2017-07-20T00:09:13.559Z,0
2017-07-20T00:10:13.543Z,0
2017-07-20T00:11:13.541Z,0
2017-07-20T00:12:12.922Z,0
2017-07-20T00:13:13.538Z,0
2017-07-20T00:14:13.522Z,0
2017-07-20T00:15:13.515Z,0
2017-07-20T00:16:12.891Z,0
2017-07-20T00:17:13.485Z,0
2017-07-20T00:18:13.209Z,0
2017-07-20T00:19:13.478Z,0
2017-07-20T00:20:13.155Z,0
2017-07-20T00:21:13.152Z,0
2017-07-20T00:22:13.144Z,0
2017-07-20T00:23:13.437Z,0
2017-07-20T00:24:13.122Z,0
2017-07-20T00:25:13.119Z,0
2017-07-20T00:26:13.421Z,0
2017-07-20T00:27:13.422Z,0
2017-07-20T00:28:13.090Z,0
2017-07-20T00:29:13.387Z,0
2017-07-20T00:30:13.380Z,0
2017-07-20T00:31:13.368Z,0
2017-07-20T00:32:13.078Z,0
2017-07-20T00:33:13.344Z,0
2017-07-20T00:34:13.042Z,0
2017-07-20T00:35:13.343Z,0
2017-07-20T00:36:13.329Z,0
2017-07-20T00:37:13.023Z,0
2017-07-20T00:38:13.021Z,0
2017-07-20T00:39:13.316Z,0
2017-07-20T00:40:13.306Z,0
2017-07-20T00:41:13.297Z,0
2017-07-20T00:42:13.301Z,0
2017-07-20T00:43:13.286Z,0
2017-07-20T00:44:13.277Z,0
2017-07-20T00:45:12.964Z,0
2017-07-20T00:46:12.650Z,0
2017-07-20T00:47:13.238Z,0
2017-07-20T00:48:12.930Z,0
2017-07-20T00:49:12.923Z,0
2017-07-20T00:50:13.227Z,0
2017-07-20T00:51:13.205Z,0
2017-07-20T00:52:13.225Z,0
2017-07-20T00:53:13.201Z,0
2017-07-20T00:54:12.881Z,0
2017-07-20T00:55:13.169Z,0
2017-07-20T00:56:13.165Z,0
2017-07-20T00:57:13.153Z,0
2017-07-20T00:58:12.847Z,0
2017-07-20T00:59:13.134Z,0
2017-07-20T01:00:13.137Z,0
2017-07-20T01:01:13.127Z,0
2017-07-20T01:02:13.111Z,0
2017-07-20T01:03:12.808Z,0
2017-07-20T01:04:13.102Z,0
2017-07-20T01:05:13.108Z,0
2017-07-20T01:06:13.074Z,0
2017-07-20T01:07:13.072Z,0
2017-07-20T01:08:13.074Z,0
2017-07-20T01:09:12.754Z,0
2017-07-20T01:10:12.737Z,0
2017-07-20T01:11:12.736Z,0
2017-07-20T01:12:13.044Z,0
2017-07-20T01:13:13.023Z,0
2017-07-20T01:14:13.033Z,0
2017-07-20T01:15:13.011Z,0
2017-07-20T01:16:12.993Z,0
2017-07-20T01:17:12.391Z,0
2017-07-20T01:18:12.990Z,0
2017-07-20T01:19:12.980Z,0
2017-07-20T01:20:12.962Z,0
2017-07-20T01:21:12.960Z,0
2017-07-20T01:22:12.947Z,0
2017-07-20T01:23:12.949Z,0
2017-07-20T01:24:12.620Z,0
2017-07-20T01:25:12.909Z,0
2017-07-20T01:26:12.619Z,0
2017-07-20T01:27:12.901Z,0
2017-07-20T01:28:12.884Z,0
2017-07-20T01:29:12.879Z,0
2017-07-20T01:30:12.570Z,0
2017-07-20T01:31:12.561Z,0
2017-07-20T01:32:12.853Z,0
2017-07-20T01:33:12.843Z,0
2017-07-20T01:34:12.836Z,0
2017-07-20T01:35:12.829Z,0
2017-07-20T01:36:12.529Z,0
2017-07-20T01:37:12.826Z,0
2017-07-20T01:38:12.809Z,0
2017-07-20T01:39:12.802Z,0
2017-07-20T01:40:12.793Z,0
2017-07-20T01:41:12.791Z,0
2017-07-20T01:42:12.767Z,0
2017-07-20T01:43:12.767Z,0
2017-07-20T01:44:12.759Z,0
2017-07-20T01:45:12.728Z,0
2017-07-20T01:46:12.738Z,0
2017-07-20T01:47:12.714Z,0
2017-07-20T01:48:12.718Z,0
2017-07-20T01:49:12.711Z,0
2017-07-20T01:50:12.397Z,0
2017-07-20T01:51:12.693Z,0
2017-07-20T01:52:12.371Z,0
2017-07-20T01:53:12.367Z,0
2017-07-20T01:54:12.360Z,0
2017-07-20T01:55:12.364Z,0
2017-07-20T01:56:12.638Z,0
2017-07-20T01:57:12.332Z,0
2017-07-20T01:58:12.632Z,0
2017-07-20T01:59:12.621Z,0
2017-07-20T02:00:12.607Z,0
2017-07-20T02:01:12.607Z,0
2017-07-20T02:02:12.585Z,0
2017-07-20T02:03:12.571Z,0
2017-07-20T02:04:12.276Z,0
2017-07-20T02:05:12.571Z,0
2017-07-20T02:06:12.555Z,0
2017-07-20T02:07:12.560Z,0
2017-07-20T02:08:12.543Z,0
2017-07-20T02:09:12.533Z,0
2017-07-20T02:10:12.514Z,0
2017-07-20T02:11:12.207Z,0
2017-07-20T02:12:12.492Z,0
2017-07-20T02:13:12.483Z,0
2017-07-20T02:14:12.482Z,0
2017-07-20T02:15:12.476Z,0
2017-07-20T02:16:12.480Z,0
2017-07-20T02:17:12.473Z,0
2017-07-20T02:18:12.455Z,0
2017-07-20T02:19:12.438Z,0
2017-07-20T02:20:12.429Z,0
2017-07-20T02:21:12.438Z,0
2017-07-20T02:22:12.423Z,0
2017-07-20T02:23:12.416Z,0
2017-07-20T02:24:12.092Z,0
2017-07-20T02:25:12.392Z,0
2017-07-20T02:26:12.371Z,0
2017-07-20T02:27:12.065Z,0
2017-07-20T02:28:12.054Z,0
2017-07-20T02:29:12.342Z,0
2017-07-20T02:30:12.372Z,0
2017-07-20T02:31:12.341Z,0
2017-07-20T02:32:12.343Z,0
2017-07-20T02:33:12.309Z,0
2017-07-20T02:34:12.311Z,0
2017-07-20T02:35:12.323Z,0
2017-07-20T02:36:11.994Z,0
2017-07-20T02:37:12.287Z,0
2017-07-20T02:38:12.286Z,0
2017-07-20T02:39:11.958Z,0
2017-07-20T02:40:12.267Z,0
2017-07-20T02:41:12.270Z,0
2017-07-20T02:42:12.257Z,0
2017-07-20T02:43:11.940Z,0
2017-07-20T02:44:11.930Z,0
2017-07-20T02:45:12.236Z,0
2017-07-20T02:46:12.214Z,0
2017-07-20T02:47:12.196Z,0
2017-07-20T02:48:12.210Z,0
2017-07-20T02:49:12.175Z,0
2017-07-20T02:50:12.190Z,0
2017-07-20T02:51:12.172Z,0
2017-07-20T02:52:12.164Z,0
2017-07-20T02:53:12.160Z,0
2017-07-20T02:54:12.157Z,0
2017-07-20T02:55:11.838Z,0
2017-07-20T02:56:12.131Z,0
2017-07-20T02:57:12.131Z,0
2017-07-20T02:58:11.805Z,0
2017-07-20T02:59:12.105Z,0
2017-07-20T03:00:12.101Z,0
2017-07-20T03:01:12.104Z,0
2017-07-20T03:02:12.079Z,0
2017-07-20T03:03:12.070Z,0
2017-07-20T03:04:12.050Z,0
2017-07-20T03:05:12.060Z,0
2017-07-20T03:06:12.040Z,0
2017-07-20T03:07:12.046Z,0
2017-07-20T03:08:12.037Z,4
2017-07-20T03:09:12.019Z,4
2017-07-20T03:10:12.101Z,4
2017-07-20T03:11:12.045Z,4
2017-07-20T03:12:11.994Z,4
2017-07-20T03:13:11.976Z,4
2017-07-20T03:14:11.976Z,4
2017-07-20T03:15:11.978Z,8
2017-07-20T03:16:11.978Z,8
2017-07-20T03:17:11.950Z,16
2017-07-20T03:18:11.949Z,16
2017-07-20T03:19:11.933Z,16
2017-07-20T03:20:11.622Z,24
2017-07-20T03:21:11.911Z,28
2017-07-20T03:22:11.616Z,32
2017-07-20T03:23:11.918Z,36
2017-07-20T03:24:11.879Z,44
2017-07-20T03:25:11.914Z,52
2017-07-20T03:26:11.568Z,64
2017-07-20T03:27:11.850Z,76
2017-07-20T03:28:11.849Z,84
2017-07-20T03:29:11.534Z,100
2017-07-20T03:30:11.836Z,108
2017-07-20T03:31:11.839Z,124
2017-07-20T03:32:11.812Z,140
2017-07-20T03:33:11.795Z,156
2017-07-20T03:34:11.797Z,176
2017-07-20T03:35:11.782Z,192
2017-07-20T03:36:11.787Z,216
2017-07-20T03:37:11.766Z,240
2017-07-20T03:38:11.770Z,260
2017-07-20T03:39:11.740Z,288
2017-07-20T03:40:11.462Z,308
2017-07-20T03:41:11.719Z,328
2017-07-20T03:42:11.416Z,356
2017-07-20T03:43:11.708Z,372
2017-07-20T03:44:11.696Z,392
2017-07-20T03:45:11.697Z,412
2017-07-20T03:46:11.394Z,428
2017-07-20T03:47:11.676Z,440
2017-07-20T03:48:11.362Z,456
2017-07-20T03:49:11.656Z,472
2017-07-20T03:50:11.666Z,492
2017-07-20T03:51:11.625Z,500
2017-07-20T03:52:11.636Z,488
2017-07-20T03:53:11.311Z,456
2017-07-20T03:54:11.600Z,444
2017-07-20T03:55:11.603Z,444
2017-07-20T03:56:11.291Z,452
2017-07-20T03:57:11.275Z,484
2017-07-20T03:58:11.260Z,536
2017-07-20T03:59:11.562Z,600
2017-07-20T04:00:11.242Z,680
2017-07-20T04:01:11.542Z,752
2017-07-20T04:02:11.539Z,800
2017-07-20T04:03:11.524Z,844
2017-07-20T04:04:11.508Z,884
2017-07-20T04:05:11.506Z,952
2017-07-20T04:06:11.480Z,1040
2017-07-20T04:07:11.490Z,1144
2017-07-20T04:08:11.496Z,1288
2017-07-20T04:09:11.451Z,1464
2017-07-20T04:10:11.464Z,1644
2017-07-20T04:11:11.436Z,1796
2017-07-20T04:12:11.430Z,1896
2017-07-20T04:13:11.418Z,1932
2017-07-20T04:14:11.420Z,1924
2017-07-20T04:15:11.411Z,1856
2017-07-20T04:16:11.393Z,1816
2017-07-20T04:17:11.096Z,1824
2017-07-20T04:18:11.074Z,1868
2017-07-20T04:19:11.371Z,1892
2017-07-20T04:20:11.364Z,1884
2017-07-20T04:21:11.348Z,1872
2017-07-20T04:22:11.336Z,1880
2017-07-20T04:23:11.340Z,1928
2017-07-20T04:24:11.016Z,2028
2017-07-20T04:25:11.323Z,2208
2017-07-20T04:26:11.304Z,2460
2017-07-20T04:27:11.295Z,2708
2017-07-20T04:28:11.305Z,2964
2017-07-20T04:29:11.273Z,3196
2017-07-20T04:30:11.259Z,3360
2017-07-20T04:31:11.251Z,3616
2017-07-20T04:32:11.246Z,4008
2017-07-20T04:33:11.237Z,4308
2017-07-20T04:34:11.235Z,4660
2017-07-20T04:35:11.209Z,5096
2017-07-20T04:36:11.199Z,5312
2017-07-20T04:37:11.205Z,5460
2017-07-20T04:38:11.187Z,5704
2017-07-20T04:39:11.186Z,5980
2017-07-20T04:40:10.861Z,6192
2017-07-20T04:41:11.175Z,6312
2017-07-20T04:42:11.182Z,6088
2017-07-20T04:43:11.164Z,5548
2017-07-20T04:44:11.146Z,4960
2017-07-20T04:45:10.839Z,4528
2017-07-20T04:46:10.843Z,4144
2017-07-20T04:47:11.125Z,3780
2017-07-20T04:48:11.128Z,3588
2017-07-20T04:49:11.097Z,3520
2017-07-20T04:50:11.079Z,3508
2017-07-20T04:51:11.096Z,3556
2017-07-20T04:52:11.095Z,3656
2017-07-20T04:53:11.086Z,3744
2017-07-20T04:54:11.064Z,3912
2017-07-20T04:55:11.046Z,4376
2017-07-20T04:56:11.049Z,5148
2017-07-20T04:57:11.034Z,5424
2017-07-20T04:58:10.761Z,5404
2017-07-20T04:59:11.013Z,5772
2017-07-20T05:00:10.716Z,6232
2017-07-20T05:01:11.010Z,6780
2017-07-20T05:02:10.994Z,7244
2017-07-20T05:03:10.989Z,7472
2017-07-20T05:04:10.668Z,7532
2017-07-20T05:05:10.975Z,7816
2017-07-20T05:06:10.969Z,8224
2017-07-20T05:07:10.350Z,8472
2017-07-20T05:08:10.951Z,8400
2017-07-20T05:09:10.942Z,8264
2017-07-20T05:10:10.940Z,8340
2017-07-20T05:11:10.646Z,8928
2017-07-20T05:12:10.604Z,9652
2017-07-20T05:13:10.904Z,9932
2017-07-20T05:14:10.586Z,9936
2017-07-20T05:15:10.877Z,10152
2017-07-20T05:16:10.885Z,10804
2017-07-20T05:17:10.863Z,11948
2017-07-20T05:18:10.875Z,12628
2017-07-20T05:19:10.861Z,12716
2017-07-20T05:20:10.847Z,12140
2017-07-20T05:21:10.834Z,11224
2017-07-20T05:22:10.229Z,10452
2017-07-20T05:23:10.514Z,9696
2017-07-20T05:24:10.824Z,9076
2017-07-20T05:25:10.489Z,8488
2017-07-20T05:26:10.501Z,8052
2017-07-20T05:27:10.483Z,7968
2017-07-20T05:28:10.489Z,8108
2017-07-20T05:29:10.474Z,8288
2017-07-20T05:30:10.468Z,8196
2017-07-20T05:31:10.760Z,8040
2017-07-20T05:32:10.755Z,8012
2017-07-20T05:33:10.456Z,8392
2017-07-20T05:34:10.752Z,8980
2017-07-20T05:35:10.115Z,9512
2017-07-20T05:36:10.751Z,10148
2017-07-20T05:37:10.716Z,10852
2017-07-20T05:38:10.712Z,10768
2017-07-20T05:39:10.709Z,10384
2017-07-20T05:40:10.699Z,10716
2017-07-20T05:41:10.694Z,11676
2017-07-20T05:42:10.694Z,12612
2017-07-20T05:43:10.372Z,13128
2017-07-20T05:44:10.661Z,13640
2017-07-20T05:45:10.659Z,13804
2017-07-20T05:46:10.343Z,14180
2017-07-20T05:47:10.330Z,14828
2017-07-20T05:48:10.641Z,15580
2017-07-20T05:49:10.311Z,16396
2017-07-20T05:50:10.321Z,16704
2017-07-20T05:51:10.316Z,16336
2017-07-20T05:52:10.312Z,15656
2017-07-20T05:53:10.291Z,14836
2017-07-20T05:54:10.300Z,14088
2017-07-20T05:55:10.590Z,13676
2017-07-20T05:56:10.576Z,13672
2017-07-20T05:57:10.266Z,13752
2017-07-20T05:58:10.563Z,14256
2017-07-20T05:59:10.262Z,15244
2017-07-20T06:00:10.247Z,17016
2017-07-20T06:01:10.255Z,18304
2017-07-20T06:02:10.235Z,18784
2017-07-20T06:03:10.237Z,19520
2017-07-20T06:04:10.528Z,20576
2017-07-20T06:05:10.232Z,20064
2017-07-20T06:06:10.205Z,20608
2017-07-20T06:07:10.205Z,23904
2017-07-20T06:08:10.516Z,37696
2017-07-20T06:09:10.493Z,47296
2017-07-20T06:10:09.882Z,22464
2017-07-20T06:11:10.491Z,36640
2017-07-20T06:12:10.172Z,44032
2017-07-20T06:13:10.152Z,43936
2017-07-20T06:14:10.166Z,30208
2017-07-20T06:15:10.452Z,27424
2017-07-20T06:16:10.454Z,45440
2017-07-20T06:17:10.439Z,44768
2017-07-20T06:18:10.437Z,45696
2017-07-20T06:19:10.421Z,50176
2017-07-20T06:20:10.422Z,41152
2017-07-20T06:21:10.411Z,37888
2017-07-20T06:22:10.403Z,43456
2017-07-20T06:23:10.400Z,39616
2017-07-20T06:24:09.788Z,41344
2017-07-20T06:25:10.403Z,41568
2017-07-20T06:26:10.388Z,40096
2017-07-20T06:27:09.761Z,47008
2017-07-20T06:28:10.383Z,45184
2017-07-20T06:29:10.092Z,38528
2017-07-20T06:30:10.375Z,37024
2017-07-20T06:31:10.056Z,42848
2017-07-20T06:32:10.355Z,39616
2017-07-20T06:33:10.036Z,48800
2017-07-20T06:34:10.027Z,39680
2017-07-20T06:35:09.740Z,46976
2017-07-20T06:36:10.028Z,52000
2017-07-20T06:37:10.330Z,50240
2017-07-20T06:38:10.324Z,51072
2017-07-20T06:39:10.309Z,54112
2017-07-20T06:40:10.302Z,54400
2017-07-20T06:41:10.303Z,55104
2017-07-20T06:42:10.289Z,48544
2017-07-20T06:43:10.285Z,48576
2017-07-20T06:44:09.675Z,53824
2017-07-20T06:45:09.959Z,52960
2017-07-20T06:46:10.274Z,54656
2017-07-20T06:47:10.277Z,62464
2017-07-20T06:48:10.264Z,72800
2017-07-20T06:49:10.255Z,63712
2017-07-20T06:50:10.250Z,45568
2017-07-20T06:51:10.235Z,39808
2017-07-20T06:52:10.231Z,37568
2017-07-20T06:53:10.236Z,38624
2017-07-20T06:54:10.220Z,46496
2017-07-20T06:55:10.236Z,58688
2017-07-20T06:56:09.906Z,59808
2017-07-20T06:57:09.901Z,59520
2017-07-20T06:58:09.899Z,62944
2017-07-20T06:59:10.213Z,73952
2017-07-20T07:00:10.244Z,75776
2017-07-20T07:01:10.193Z,67584
2017-07-20T07:02:09.879Z,66400
2017-07-20T07:03:10.194Z,61120
2017-07-20T07:04:10.186Z,59456
2017-07-20T07:05:10.175Z,61728
2017-07-20T07:06:10.183Z,58304
2017-07-20T07:07:09.878Z,61312
2017-07-20T07:08:10.164Z,61856
2017-07-20T07:09:10.170Z,60320
2017-07-20T07:10:10.159Z,63392
2017-07-20T07:11:09.836Z,61024
2017-07-20T07:12:09.851Z,55808
2017-07-20T07:13:10.146Z,57856
2017-07-20T07:14:10.130Z,62240
2017-07-20T07:15:10.122Z,62240
2017-07-20T07:16:10.123Z,60192
2017-07-20T07:17:10.162Z,69632
2017-07-20T07:18:10.114Z,57632
2017-07-20T07:19:10.119Z,52640
2017-07-20T07:20:09.799Z,61600
2017-07-20T07:21:10.102Z,57280
2017-07-20T07:22:10.103Z,60128
2017-07-20T07:23:09.789Z,63072
2017-07-20T07:24:10.088Z,71360
2017-07-20T07:25:10.080Z,77408
2017-07-20T07:26:09.774Z,69760
2017-07-20T07:27:10.089Z,70496
2017-07-20T07:28:09.758Z,75040
2017-07-20T07:29:10.072Z,80992
2017-07-20T07:30:09.762Z,73408
2017-07-20T07:31:10.055Z,55008
2017-07-20T07:32:10.060Z,44640
2017-07-20T07:33:10.061Z,44608
2017-07-20T07:34:09.739Z,49376
2017-07-20T07:35:10.034Z,70528
2017-07-20T07:36:10.034Z,85536
2017-07-20T07:37:10.020Z,85056
2017-07-20T07:38:10.030Z,86176
2017-07-20T07:39:10.026Z,82400
2017-07-20T07:40:10.038Z,73472
2017-07-20T07:41:10.024Z,69472
2017-07-20T07:42:09.397Z,70784
2017-07-20T07:43:10.001Z,72224
2017-07-20T07:44:10.007Z,68992
2017-07-20T07:45:10.214Z,84576
2017-07-20T07:46:09.688Z,57376
2017-07-20T07:47:09.680Z,47392
2017-07-20T07:48:09.365Z,54240
2017-07-20T07:49:09.981Z,59744
2017-07-20T07:50:09.676Z,58400
2017-07-20T07:51:09.963Z,54464
2017-07-20T07:52:09.982Z,58112
2017-07-20T07:53:09.984Z,64128
2017-07-20T07:54:09.968Z,80096
2017-07-20T07:55:09.656Z,85696
2017-07-20T07:56:09.952Z,77856
2017-07-20T07:57:09.955Z,68640
2017-07-20T07:58:09.642Z,64608
2017-07-20T07:59:09.943Z,62784
2017-07-20T08:00:09.932Z,57792
2017-07-20T08:01:09.929Z,61856
2017-07-20T08:02:09.930Z,68224
2017-07-20T08:03:09.977Z,65856
2017-07-20T08:04:09.907Z,64416
2017-07-20T08:05:09.934Z,67168
2017-07-20T08:06:09.915Z,65632
2017-07-20T08:07:09.902Z,69632
2017-07-20T08:08:09.290Z,83872
2017-07-20T08:09:09.592Z,84192
2017-07-20T08:10:09.896Z,89088
2017-07-20T08:11:09.889Z,88672
2017-07-20T08:12:09.879Z,85632
2017-07-20T08:13:09.875Z,59040
2017-07-20T08:14:09.882Z,71616
2017-07-20T08:15:09.865Z,88896
2017-07-20T08:16:09.860Z,89952
2017-07-20T08:17:09.895Z,84544
2017-07-20T08:18:09.852Z,76960
2017-07-20T08:19:09.854Z,83648
2017-07-20T08:20:09.886Z,88512
2017-07-20T08:21:09.833Z,84896
2017-07-20T08:22:09.837Z,97216
2017-07-20T08:23:09.836Z,92800
2017-07-20T08:24:09.818Z,91168
2017-07-20T08:25:09.525Z,112160
2017-07-20T08:26:09.204Z,114464
2017-07-20T08:27:09.805Z,104096
2017-07-20T08:28:09.825Z,101696
2017-07-20T08:29:09.806Z,103584
2017-07-20T08:30:08.889Z,91328
2017-07-20T08:31:09.490Z,106720
2017-07-20T08:32:09.790Z,113792
2017-07-20T08:33:09.805Z,114720
2017-07-20T08:34:09.782Z,111072
2017-07-20T08:35:09.468Z,108320
2017-07-20T08:36:09.481Z,107904
2017-07-20T08:37:09.762Z,92032
2017-07-20T08:38:09.763Z,102560
2017-07-20T08:39:09.754Z,97856
2017-07-20T08:40:09.760Z,78496
2017-07-20T08:41:09.455Z,77664
2017-07-20T08:42:09.761Z,87648
2017-07-20T08:43:09.437Z,56160
2017-07-20T08:44:09.735Z,58752
2017-07-20T08:45:09.740Z,48128
2017-07-20T08:46:09.433Z,50112
2017-07-20T08:47:09.410Z,76064
2017-07-20T08:48:09.125Z,69504
2017-07-20T08:49:09.106Z,73696
2017-07-20T08:50:09.713Z,56256
2017-07-20T08:51:09.404Z,54208
2017-07-20T08:52:09.692Z,48896
2017-07-20T08:53:09.390Z,49024
2017-07-20T08:54:09.409Z,64448
2017-07-20T08:55:09.388Z,49152
2017-07-20T08:56:09.669Z,50592
2017-07-20T08:57:09.365Z,55456
2017-07-20T08:58:09.352Z,96480
2017-07-20T08:59:09.661Z,87552
2017-07-20T09:00:09.654Z,52256
2017-07-20T09:01:09.657Z,87040
2017-07-20T09:02:09.647Z,55424
2017-07-20T09:03:09.628Z,123072
2017-07-20T09:04:09.637Z,112384
2017-07-20T09:05:09.620Z,111456
2017-07-20T09:06:09.000Z,115776
2017-07-20T09:07:09.612Z,74688
2017-07-20T09:08:09.597Z,117472
2017-07-20T09:09:09.591Z,135904
2017-07-20T09:10:09.280Z,55296
2017-07-20T09:11:09.590Z,109952
2017-07-20T09:12:08.977Z,77056
2017-07-20T09:13:09.566Z,110848
2017-07-20T09:14:09.274Z,102784
2017-07-20T09:15:09.569Z,104640
2017-07-20T09:16:09.260Z,73536
2017-07-20T09:17:09.257Z,88160
2017-07-20T09:18:09.252Z,90208
2017-07-20T09:19:09.574Z,91168
2017-07-20T09:20:09.239Z,93184
2017-07-20T09:21:09.536Z,98208
2017-07-20T09:22:09.227Z,108480
2017-07-20T09:23:09.536Z,119232
2017-07-20T09:24:09.516Z,126272
2017-07-20T09:25:09.525Z,116256
2017-07-20T09:26:09.208Z,107552
2017-07-20T09:27:09.517Z,105056
2017-07-20T09:28:09.509Z,99104
2017-07-20T09:29:09.492Z,96320
2017-07-20T09:30:09.706Z,104704
2017-07-20T09:31:09.495Z,103776
2017-07-20T09:32:09.498Z,95904
2017-07-20T09:33:09.501Z,103552
2017-07-20T09:34:09.493Z,95904
2017-07-20T09:35:09.494Z,99968
2017-07-20T09:36:09.487Z,98080
2017-07-20T09:37:09.469Z,100224
2017-07-20T09:38:09.464Z,87392
2017-07-20T09:39:09.468Z,79680
2017-07-20T09:40:09.452Z,90816
2017-07-20T09:41:09.453Z,96288
2017-07-20T09:42:09.456Z,96096
2017-07-20T09:43:09.446Z,59136
2017-07-20T09:44:09.450Z,114432
2017-07-20T09:45:09.445Z,110496
2017-07-20T09:46:09.428Z,101152
2017-07-20T09:47:09.431Z,69376
2017-07-20T09:48:09.433Z,51744
2017-07-20T09:49:09.408Z,39616
2017-07-20T09:50:09.412Z,67232
2017-07-20T09:51:09.399Z,83392
2017-07-20T09:52:09.406Z,85184
2017-07-20T09:53:09.400Z,79456
2017-07-20T09:54:09.406Z,62112
2017-07-20T09:55:09.418Z,85088
2017-07-20T09:56:09.373Z,84224
2017-07-20T09:57:09.069Z,116416
2017-07-20T09:58:09.078Z,128640
2017-07-20T09:59:09.359Z,123840
2017-07-20T10:00:08.650Z,122016
2017-07-20T10:01:09.357Z,108128
2017-07-20T10:02:09.348Z,75680
2017-07-20T10:03:09.348Z,82400
2017-07-20T10:04:09.343Z,73024
2017-07-20T10:05:09.536Z,59072
2017-07-20T10:06:09.324Z,77888
2017-07-20T10:07:09.312Z,124416
2017-07-20T10:08:09.316Z,98688
2017-07-20T10:09:09.293Z,120640
2017-07-20T10:10:08.993Z,137408
2017-07-20T10:11:09.305Z,92384
2017-07-20T10:12:09.288Z,109920
2017-07-20T10:13:08.973Z,131360
2017-07-20T10:14:09.287Z,87264
2017-07-20T10:15:08.971Z,103168
2017-07-20T10:16:08.665Z,87232
2017-07-20T10:17:09.273Z,79264
2017-07-20T10:18:08.963Z,66496
2017-07-20T10:19:09.261Z,50080
2017-07-20T10:20:08.959Z,34464
2017-07-20T10:21:09.262Z,34272
2017-07-20T10:22:09.241Z,29248
2017-07-20T10:23:09.262Z,25952
2017-07-20T10:24:09.234Z,27616
2017-07-20T10:25:08.926Z,25312
2017-07-20T10:26:09.225Z,18368
2017-07-20T10:27:08.928Z,15100
2017-07-20T10:28:09.205Z,13644
2017-07-20T10:29:09.203Z,13640
2017-07-20T10:30:08.909Z,16428
2017-07-20T10:31:09.187Z,18496
2017-07-20T10:32:08.881Z,17048
2017-07-20T10:33:09.197Z,25664
2017-07-20T10:34:08.885Z,25760
2017-07-20T10:35:09.160Z,22816
2017-07-20T10:36:09.167Z,26048
2017-07-20T10:37:09.159Z,28448
2017-07-20T10:38:09.147Z,27360
2017-07-20T10:39:09.049Z,23680
2017-07-20T10:40:09.355Z,26720
2017-07-20T10:41:09.124Z,39616
2017-07-20T10:42:08.813Z,37664
2017-07-20T10:43:08.811Z,26976
2017-07-20T10:44:09.307Z,21120
2017-07-20T10:45:08.988Z,20320
2017-07-20T10:46:08.787Z,16548
2017-07-20T10:47:08.777Z,14592
2017-07-20T10:48:08.777Z,16684
2017-07-20T10:49:09.065Z,20640
2017-07-20T10:50:08.765Z,24960
2017-07-20T10:51:09.268Z,33472
2017-07-20T10:52:08.760Z,22496
2017-07-20T10:53:09.030Z,18816
2017-07-20T10:54:08.732Z,19872
2017-07-20T10:55:08.718Z,22880
2017-07-20T10:56:08.730Z,24864
2017-07-20T10:57:08.714Z,25920
2017-07-20T10:58:08.998Z,22880
2017-07-20T10:59:08.688Z,19360
2017-07-20T11:00:08.383Z,18144
2017-07-20T11:01:08.683Z,19456
2017-07-20T11:02:08.963Z,17984
2017-07-20T11:03:08.662Z,15712
2017-07-20T11:04:08.648Z,14096
2017-07-20T11:05:08.651Z,12868
2017-07-20T11:06:08.936Z,11468
2017-07-20T11:07:08.622Z,13620
2017-07-20T11:08:08.926Z,13440
2017-07-20T11:09:08.909Z,12696
2017-07-20T11:10:08.913Z,15988
2017-07-20T11:11:08.894Z,19808
2017-07-20T11:12:08.893Z,18880
2017-07-20T11:13:08.891Z,15572
2017-07-20T11:14:08.569Z,14024
2017-07-20T11:15:08.860Z,13412
2017-07-20T11:16:08.840Z,13564
2017-07-20T11:17:08.853Z,12116
2017-07-20T11:18:22.727Z,13408
2017-07-20T11:19:08.819Z,14348
2017-07-20T11:20:08.826Z,14872
2017-07-20T11:21:08.804Z,14644
2017-07-20T11:22:08.814Z,14024
2017-07-20T11:23:08.996Z,13220
2017-07-20T11:24:22.153Z,10708
2017-07-20T11:25:08.771Z,9632
2017-07-20T11:26:08.466Z,8556
2017-07-20T11:27:08.754Z,8092
2017-07-20T11:28:08.737Z,7984
2017-07-20T11:29:08.742Z,8888
2017-07-20T11:30:08.130Z,9392
2017-07-20T11:31:08.715Z,9952
2017-07-20T11:32:08.707Z,11484
2017-07-20T11:33:08.710Z,13204
2017-07-20T11:34:08.683Z,12036
2017-07-20T11:35:08.690Z,13264
2017-07-20T11:36:08.662Z,13592
2017-07-20T11:37:08.673Z,10388
2017-07-20T11:38:08.644Z,10768
2017-07-20T11:39:08.649Z,10976
2017-07-20T11:40:08.637Z,9804
2017-07-20T11:41:08.642Z,7864
2017-07-20T11:42:08.606Z,6688
2017-07-20T11:43:08.607Z,5908
2017-07-20T11:44:08.598Z,5900
2017-07-20T11:45:08.591Z,9196
2017-07-20T11:46:08.581Z,7804
2017-07-20T11:47:08.290Z,8000
2017-07-20T11:48:08.565Z,10104
2017-07-20T11:49:08.557Z,6796
2017-07-20T11:50:08.239Z,6224
2017-07-20T11:51:08.530Z,5672
2017-07-20T11:52:08.226Z,5748
2017-07-20T11:53:08.217Z,6320
2017-07-20T11:54:07.896Z,7644
2017-07-20T11:55:08.511Z,5208
2017-07-20T11:56:22.079Z,4808
2017-07-20T11:57:08.500Z,4660
2017-07-20T11:58:08.171Z,3380
2017-07-20T11:59:08.466Z,3020
2017-07-20T12:00:08.158Z,2660
2017-07-20T12:01:08.643Z,1864
2017-07-20T12:02:08.125Z,1748
2017-07-20T12:03:08.129Z,1528
2017-07-20T12:04:08.420Z,1836
2017-07-20T12:05:07.809Z,2180
2017-07-20T12:06:08.096Z,3380
2017-07-20T12:07:08.087Z,5140
2017-07-20T12:08:08.376Z,6984
2017-07-20T12:09:08.054Z,8812
2017-07-20T12:10:08.364Z,10996
2017-07-20T12:11:08.352Z,14308
2017-07-20T12:12:08.037Z,18032
2017-07-20T12:13:08.031Z,24288
2017-07-20T12:14:08.014Z,32896
2017-07-20T12:15:08.328Z,42432
2017-07-20T12:16:08.293Z,48416
2017-07-20T12:17:08.000Z,53568
2017-07-20T12:18:08.281Z,56576
2017-07-20T12:19:08.288Z,62176
2017-07-20T12:20:08.263Z,75680
2017-07-20T12:21:08.251Z,61792
2017-07-20T12:22:07.954Z,50080
2017-07-20T12:23:08.238Z,41024
2017-07-20T12:24:08.227Z,34592
2017-07-20T12:25:08.229Z,26528
2017-07-20T12:26:08.221Z,18368
2017-07-20T12:27:07.899Z,14344
2017-07-20T12:28:07.909Z,15428
2017-07-20T12:29:08.206Z,23776
2017-07-20T12:30:07.881Z,23648
